sensor_id;sensor_type;location;lat;lon;timestamp;P1;durP1;ratioP1;P2;durP2;ratioP2
14734;SDS011;7458;49.002;8.472;2023-10-09T00:01:51;1436.40;;;999.90;;
14734;SDS011;7458;49.002;8.472;2023-10-09T00:04:18;1434.68;;;999.90;;
14734;SDS011;7458;49.002;8.472;2023-10-09T00:06:45;1431.75;;;999.90;;
14734;SDS011;7458;49.002;8.472;2023-10-09T00:09:12;1438.32;;;999.90;;
14734;SDS011;7458;49.002;8.472;2023-10-09T00:11:44;1400.30;;;999.90;;
14734;SDS011;7458;49.002;8.472;2023-10-09T00:14:10;1436.00;;;999.90;;
14734;SDS011;7458;49.002;8.472;2023-10-09T00:16:37;1433.22;;;999.90;;
14734;SDS011;7458;49.002;8.472;2023-10-09T00:19:12;1394.95;;;999.90;;
14734;SDS011;7458;49.002;8.472;2023-10-09T00:21:46;1391.63;;;999.90;;
14734;SDS011;7458;49.002;8.472;2023-10-09T00:24:15;1387.40;;;999.90;;
14734;SDS011;7458;49.002;8.472;2023-10-09T00:26:48;1427.80;;;999.90;;
14734;SDS011;7458;49.002;8.472;2023-10-09T00:29:20;1392.32;;;999.90;;
14734;SDS011;7458;49.002;8.472;2023-10-09T00:31:50;1384.00;;;999.90;;
14734;SDS011;7458;49.002;8.472;2023-10-09T00:34:32;1378.07;;;999.90;;
14734;SDS011;7458;49.002;8.472;2023-10-09T00:37:05;1386.28;;;999.90;;
14734;SDS011;7458;49.002;8.472;2023-10-09T00:39:44;1433.85;;;999.90;;
14734;SDS011;7458;49.002;8.472;2023-10-09T00:42:12;1391.13;;;999.90;;
14734;SDS011;7458;49.002;8.472;2023-10-09T00:44:41;1436.25;;;999.90;;
14734;SDS011;7458;49.002;8.472;2023-10-09T00:47:11;1376.82;;;999.90;;
14734;SDS011;7458;49.002;8.472;2023-10-09T00:50:00;1382.28;;;999.90;;
14734;SDS011;7458;49.002;8.472;2023-10-09T00:52:47;1425.38;;;999.90;;
14734;SDS011;7458;49.002;8.472;2023-10-09T00:55:26;1424.80;;;999.90;;
14734;SDS011;7458;49.002;8.472;2023-10-09T00:58:03;1383.60;;;999.90;;
14734;SDS011;7458;49.002;8.472;2023-10-09T01:00:35;1382.22;;;999.90;;
14734;SDS011;7458;49.002;8.472;2023-10-09T01:03:15;1377.90;;;999.90;;
14734;SDS011;7458;49.002;8.472;2023-10-09T01:05:43;1387.05;;;999.90;;
14734;SDS011;7458;49.002;8.472;2023-10-09T01:08:34;1433.35;;;999.90;;
14734;SDS011;7458;49.002;8.472;2023-10-09T01:11:16;1425.55;;;999.90;;
14734;SDS011;7458;49.002;8.472;2023-10-09T01:13:44;1379.80;;;999.90;;
14734;SDS011;7458;49.002;8.472;2023-10-09T01:16:17;1383.15;;;999.90;;
14734;SDS011;7458;49.002;8.472;2023-10-09T01:18:53;1413.93;;;999.90;;
14734;SDS011;7458;49.002;8.472;2023-10-09T01:21:23;1371.10;;;999.90;;
14734;SDS011;7458;49.002;8.472;2023-10-09T01:23:51;1376.20;;;999.90;;
14734;SDS011;7458;49.002;8.472;2023-10-09T01:26:27;1381.90;;;999.90;;
14734;SDS011;7458;49.002;8.472;2023-10-09T01:29:04;1423.50;;;999.90;;
14734;SDS011;7458;49.002;8.472;2023-10-09T01:31:53;1430.30;;;999.90;;
14734;SDS011;7458;49.002;8.472;2023-10-09T01:37:06;1378.32;;;999.90;;
14734;SDS011;7458;49.002;8.472;2023-10-09T01:39:40;1421.15;;;999.90;;
14734;SDS011;7458;49.002;8.472;2023-10-09T01:42:07;1372.30;;;999.90;;
14734;SDS011;7458;49.002;8.472;2023-10-09T01:44:34;1413.18;;;999.90;;
14734;SDS011;7458;49.002;8.472;2023-10-09T01:47:08;1376.28;;;999.90;;
14734;SDS011;7458;49.002;8.472;2023-10-09T01:49:38;1429.65;;;999.90;;
14734;SDS011;7458;49.002;8.472;2023-10-09T01:54:41;1426.45;;;999.90;;
14734;SDS011;7458;49.002;8.472;2023-10-09T01:57:15;1422.72;;;999.90;;
14734;SDS011;7458;49.002;8.472;2023-10-09T01:59:55;1421.28;;;999.90;;
14734;SDS011;7458;49.002;8.472;2023-10-09T02:02:23;1379.05;;;999.90;;
14734;SDS011;7458;49.002;8.472;2023-10-09T02:04:52;1371.82;;;999.90;;
14734;SDS011;7458;49.002;8.472;2023-10-09T02:07:20;1425.93;;;999.90;;
14734;SDS011;7458;49.002;8.472;2023-10-09T02:09:52;1377.50;;;999.90;;
14734;SDS011;7458;49.002;8.472;2023-10-09T02:12:20;1416.80;;;999.90;;
14734;SDS011;7458;49.002;8.472;2023-10-09T02:14:47;1419.80;;;999.90;;
14734;SDS011;7458;49.002;8.472;2023-10-09T02:17:13;1409.22;;;999.90;;
14734;SDS011;7458;49.002;8.472;2023-10-09T02:19:53;1413.53;;;999.90;;
14734;SDS011;7458;49.002;8.472;2023-10-09T02:22:19;1414.53;;;999.90;;
14734;SDS011;7458;49.002;8.472;2023-10-09T02:24:45;1369.35;;;999.90;;
14734;SDS011;7458;49.002;8.472;2023-10-09T02:27:18;1418.88;;;999.90;;
14734;SDS011;7458;49.002;8.472;2023-10-09T02:30:03;1414.18;;;999.90;;
14734;SDS011;7458;49.002;8.472;2023-10-09T02:32:44;1371.65;;;999.90;;
14734;SDS011;7458;49.002;8.472;2023-10-09T02:35:19;1363.47;;;999.90;;
14734;SDS011;7458;49.002;8.472;2023-10-09T02:38:04;1414.32;;;999.90;;
14734;SDS011;7458;49.002;8.472;2023-10-09T02:40:33;1414.03;;;999.90;;
14734;SDS011;7458;49.002;8.472;2023-10-09T02:43:07;1377.68;;;999.90;;
14734;SDS011;7458;49.002;8.472;2023-10-09T02:45:42;1408.82;;;999.90;;
14734;SDS011;7458;49.002;8.472;2023-10-09T02:48:15;1365.78;;;999.90;;
14734;SDS011;7458;49.002;8.472;2023-10-09T02:50:46;1415.72;;;999.90;;
14734;SDS011;7458;49.002;8.472;2023-10-09T02:53:12;1368.75;;;999.90;;
14734;SDS011;7458;49.002;8.472;2023-10-09T02:55:44;1443.88;;;999.90;;
14734;SDS011;7458;49.002;8.472;2023-10-09T02:58:28;1462.57;;;999.90;;
14734;SDS011;7458;49.002;8.472;2023-10-09T03:00:57;1422.97;;;999.90;;
14734;SDS011;7458;49.002;8.472;2023-10-09T03:03:24;1413.10;;;999.90;;
14734;SDS011;7458;49.002;8.472;2023-10-09T03:05:50;1385.07;;;999.90;;
14734;SDS011;7458;49.002;8.472;2023-10-09T03:08:17;1429.63;;;999.90;;
14734;SDS011;7458;49.002;8.472;2023-10-09T03:10:44;1393.85;;;999.90;;
14734;SDS011;7458;49.002;8.472;2023-10-09T03:13:10;1446.28;;;999.90;;
14734;SDS011;7458;49.002;8.472;2023-10-09T03:15:38;1434.03;;;999.90;;
14734;SDS011;7458;49.002;8.472;2023-10-09T03:18:04;1430.93;;;999.90;;
14734;SDS011;7458;49.002;8.472;2023-10-09T03:20:33;1395.38;;;999.90;;
14734;SDS011;7458;49.002;8.472;2023-10-09T03:22:59;1441.95;;;999.90;;
14734;SDS011;7458;49.002;8.472;2023-10-09T03:25:26;1430.85;;;999.90;;
14734;SDS011;7458;49.002;8.472;2023-10-09T03:27:53;1382.05;;;999.90;;
14734;SDS011;7458;49.002;8.472;2023-10-09T03:30:21;1386.55;;;999.90;;
14734;SDS011;7458;49.002;8.472;2023-10-09T03:32:47;1387.43;;;999.90;;
14734;SDS011;7458;49.002;8.472;2023-10-09T03:35:18;1384.57;;;999.90;;
14734;SDS011;7458;49.002;8.472;2023-10-09T03:37:56;1390.18;;;999.90;;
14734;SDS011;7458;49.002;8.472;2023-10-09T03:40:25;1378.38;;;999.90;;
14734;SDS011;7458;49.002;8.472;2023-10-09T03:42:52;1376.63;;;999.90;;
14734;SDS011;7458;49.002;8.472;2023-10-09T03:45:19;1390.97;;;999.90;;
14734;SDS011;7458;49.002;8.472;2023-10-09T03:47:52;1422.00;;;999.90;;
14734;SDS011;7458;49.002;8.472;2023-10-09T03:50:40;1385.68;;;999.90;;
14734;SDS011;7458;49.002;8.472;2023-10-09T03:53:08;1404.25;;;999.90;;
14734;SDS011;7458;49.002;8.472;2023-10-09T03:55:37;1410.60;;;999.90;;
14734;SDS011;7458;49.002;8.472;2023-10-09T03:58:04;1404.45;;;999.90;;
14734;SDS011;7458;49.002;8.472;2023-10-09T04:00:31;1403.18;;;999.90;;
14734;SDS011;7458;49.002;8.472;2023-10-09T04:03:06;1413.28;;;999.90;;
14734;SDS011;7458;49.002;8.472;2023-10-09T04:05:32;1404.55;;;999.90;;
14734;SDS011;7458;49.002;8.472;2023-10-09T04:07:58;1407.38;;;999.90;;
14734;SDS011;7458;49.002;8.472;2023-10-09T04:10:27;1417.65;;;999.90;;
14734;SDS011;7458;49.002;8.472;2023-10-09T04:13:08;1420.45;;;999.90;;
14734;SDS011;7458;49.002;8.472;2023-10-09T04:15:37;1454.50;;;999.90;;
14734;SDS011;7458;49.002;8.472;2023-10-09T04:18:07;1459.70;;;999.90;;
14734;SDS011;7458;49.002;8.472;2023-10-09T04:20:40;1422.70;;;999.90;;
14734;SDS011;7458;49.002;8.472;2023-10-09T04:23:32;1457.65;;;999.90;;
14734;SDS011;7458;49.002;8.472;2023-10-09T04:26:21;1455.20;;;999.90;;
14734;SDS011;7458;49.002;8.472;2023-10-09T04:28:50;1454.60;;;999.90;;
14734;SDS011;7458;49.002;8.472;2023-10-09T04:31:21;1460.85;;;999.90;;
14734;SDS011;7458;49.002;8.472;2023-10-09T04:33:56;1417.65;;;999.90;;
14734;SDS011;7458;49.002;8.472;2023-10-09T04:36:42;1464.65;;;999.90;;
14734;SDS011;7458;49.002;8.472;2023-10-09T04:39:22;1455.85;;;999.90;;
14734;SDS011;7458;49.002;8.472;2023-10-09T04:42:01;1451.97;;;999.90;;
14734;SDS011;7458;49.002;8.472;2023-10-09T04:44:46;1469.15;;;999.90;;
14734;SDS011;7458;49.002;8.472;2023-10-09T04:47:33;1452.32;;;999.90;;
14734;SDS011;7458;49.002;8.472;2023-10-09T04:50:14;1402.25;;;999.90;;
14734;SDS011;7458;49.002;8.472;2023-10-09T04:52:44;1445.80;;;999.90;;
14734;SDS011;7458;49.002;8.472;2023-10-09T04:55:10;1402.45;;;999.90;;
14734;SDS011;7458;49.002;8.472;2023-10-09T04:57:46;1462.93;;;999.90;;
14734;SDS011;7458;49.002;8.472;2023-10-09T05:00:26;1410.88;;;999.90;;
14734;SDS011;7458;49.002;8.472;2023-10-09T05:02:52;1411.47;;;999.90;;
14734;SDS011;7458;49.002;8.472;2023-10-09T05:08:06;1416.55;;;999.90;;
14734;SDS011;7458;49.002;8.472;2023-10-09T05:11:09;1401.30;;;999.90;;
14734;SDS011;7458;49.002;8.472;2023-10-09T05:13:40;1448.70;;;999.90;;
14734;SDS011;7458;49.002;8.472;2023-10-09T05:16:16;1450.78;;;999.90;;
14734;SDS011;7458;49.002;8.472;2023-10-09T05:18:47;1409.00;;;999.90;;
14734;SDS011;7458;49.002;8.472;2023-10-09T05:21:37;1442.45;;;999.90;;
14734;SDS011;7458;49.002;8.472;2023-10-09T05:24:08;1403.05;;;999.90;;
14734;SDS011;7458;49.002;8.472;2023-10-09T05:26:39;1438.80;;;999.90;;
14734;SDS011;7458;49.002;8.472;2023-10-09T05:29:14;1433.18;;;999.90;;
14734;SDS011;7458;49.002;8.472;2023-10-09T05:31:59;1399.70;;;999.90;;
14734;SDS011;7458;49.002;8.472;2023-10-09T05:34:38;1391.53;;;999.90;;
14734;SDS011;7458;49.002;8.472;2023-10-09T05:37:25;1426.97;;;999.90;;
14734;SDS011;7458;49.002;8.472;2023-10-09T05:40:00;1411.13;;;999.90;;
14734;SDS011;7458;49.002;8.472;2023-10-09T05:42:48;1434.70;;;999.90;;
14734;SDS011;7458;49.002;8.472;2023-10-09T05:45:24;1434.15;;;999.90;;
14734;SDS011;7458;49.002;8.472;2023-10-09T05:50:38;1401.78;;;999.90;;
14734;SDS011;7458;49.002;8.472;2023-10-09T05:53:24;1434.38;;;999.90;;
14734;SDS011;7458;49.002;8.472;2023-10-09T05:56:08;1380.85;;;999.90;;
14734;SDS011;7458;49.002;8.472;2023-10-09T05:58:52;1425.32;;;999.90;;
14734;SDS011;7458;49.002;8.472;2023-10-09T06:01:37;1425.63;;;999.90;;
14734;SDS011;7458;49.002;8.472;2023-10-09T06:04:21;1429.43;;;999.90;;
14734;SDS011;7458;49.002;8.472;2023-10-09T06:06:59;1377.90;;;999.90;;
14734;SDS011;7458;49.002;8.472;2023-10-09T06:09:36;1379.22;;;999.90;;
14734;SDS011;7458;49.002;8.472;2023-10-09T06:12:14;1417.82;;;999.90;;
14734;SDS011;7458;49.002;8.472;2023-10-09T06:15:14;1412.20;;;999.90;;
14734;SDS011;7458;49.002;8.472;2023-10-09T06:17:55;1364.43;;;999.90;;
14734;SDS011;7458;49.002;8.472;2023-10-09T06:20:41;1380.72;;;999.90;;
14734;SDS011;7458;49.002;8.472;2023-10-09T06:23:25;1376.47;;;999.90;;
14734;SDS011;7458;49.002;8.472;2023-10-09T06:26:11;1383.93;;;999.90;;
14734;SDS011;7458;49.002;8.472;2023-10-09T06:28:49;1365.45;;;999.90;;
14734;SDS011;7458;49.002;8.472;2023-10-09T06:31:36;1363.50;;;999.90;;
14734;SDS011;7458;49.002;8.472;2023-10-09T06:34:32;1377.55;;;999.90;;
14734;SDS011;7458;49.002;8.472;2023-10-09T06:37:01;1421.57;;;999.90;;
14734;SDS011;7458;49.002;8.472;2023-10-09T06:39:31;1382.03;;;999.90;;
14734;SDS011;7458;49.002;8.472;2023-10-09T06:42:17;1415.90;;;999.90;;
14734;SDS011;7458;49.002;8.472;2023-10-09T06:47:39;1406.60;;;999.90;;
14734;SDS011;7458;49.002;8.472;2023-10-09T06:50:21;1402.57;;;999.90;;
14734;SDS011;7458;49.002;8.472;2023-10-09T06:52:52;1345.28;;;999.90;;
14734;SDS011;7458;49.002;8.472;2023-10-09T06:55:37;1412.13;;;999.90;;
14734;SDS011;7458;49.002;8.472;2023-10-09T06:58:30;1406.65;;;999.90;;
14734;SDS011;7458;49.002;8.472;2023-10-09T07:01:09;1403.43;;;999.90;;
14734;SDS011;7458;49.002;8.472;2023-10-09T07:03:45;1394.78;;;999.90;;
14734;SDS011;7458;49.002;8.472;2023-10-09T07:06:25;1347.28;;;999.90;;
14734;SDS011;7458;49.002;8.472;2023-10-09T07:09:01;1338.00;;;999.90;;
14734;SDS011;7458;49.002;8.472;2023-10-09T07:11:33;1345.82;;;999.90;;
14734;SDS011;7458;49.002;8.472;2023-10-09T07:17:00;1345.10;;;999.90;;
14734;SDS011;7458;49.002;8.472;2023-10-09T07:19:41;1341.47;;;999.90;;
14734;SDS011;7458;49.002;8.472;2023-10-09T07:22:08;1329.15;;;999.90;;
14734;SDS011;7458;49.002;8.472;2023-10-09T07:24:49;1329.55;;;999.90;;
14734;SDS011;7458;49.002;8.472;2023-10-09T07:27:26;1326.15;;;999.90;;
14734;SDS011;7458;49.002;8.472;2023-10-09T07:33:05;1378.07;;;999.90;;
14734;SDS011;7458;49.002;8.472;2023-10-09T07:35:35;1326.80;;;999.90;;
14734;SDS011;7458;49.002;8.472;2023-10-09T07:38:26;1323.82;;;999.90;;
14734;SDS011;7458;49.002;8.472;2023-10-09T07:41:00;1326.43;;;999.90;;
14734;SDS011;7458;49.002;8.472;2023-10-09T07:43:28;1380.00;;;999.90;;
14734;SDS011;7458;49.002;8.472;2023-10-09T07:48:58;1316.07;;;999.90;;
14734;SDS011;7458;49.002;8.472;2023-10-09T07:51:33;1370.40;;;999.90;;
14734;SDS011;7458;49.002;8.472;2023-10-09T07:54:09;1369.20;;;999.90;;
14734;SDS011;7458;49.002;8.472;2023-10-09T07:56:40;1300.30;;;999.90;;
14734;SDS011;7458;49.002;8.472;2023-10-09T07:59:10;1307.78;;;999.90;;
14734;SDS011;7458;49.002;8.472;2023-10-09T08:01:47;1301.57;;;999.90;;
14734;SDS011;7458;49.002;8.472;2023-10-09T08:04:19;1323.40;;;999.90;;
14734;SDS011;7458;49.002;8.472;2023-10-09T08:07:06;1371.65;;;999.90;;
14734;SDS011;7458;49.002;8.472;2023-10-09T08:09:34;1314.70;;;999.90;;
14734;SDS011;7458;49.002;8.472;2023-10-09T08:12:36;1360.88;;;999.90;;
14734;SDS011;7458;49.002;8.472;2023-10-09T08:15:23;1358.82;;;999.90;;
14734;SDS011;7458;49.002;8.472;2023-10-09T08:17:59;1359.28;;;999.90;;
14734;SDS011;7458;49.002;8.472;2023-10-09T08:20:35;1355.22;;;999.90;;
14734;SDS011;7458;49.002;8.472;2023-10-09T08:23:20;1302.32;;;999.90;;
14734;SDS011;7458;49.002;8.472;2023-10-09T08:26:13;1295.63;;;999.90;;
14734;SDS011;7458;49.002;8.472;2023-10-09T08:28:53;1292.07;;;999.90;;
14734;SDS011;7458;49.002;8.472;2023-10-09T08:31:39;1270.82;;;999.90;;
14734;SDS011;7458;49.002;8.472;2023-10-09T08:34:14;1334.65;;;999.90;;
14734;SDS011;7458;49.002;8.472;2023-10-09T08:36:50;1259.10;;;999.90;;
14734;SDS011;7458;49.002;8.472;2023-10-09T08:39:20;1271.55;;;999.90;;
14734;SDS011;7458;49.002;8.472;2023-10-09T08:41:55;1336.93;;;999.90;;
14734;SDS011;7458;49.002;8.472;2023-10-09T08:44:27;1333.43;;;999.90;;
14734;SDS011;7458;49.002;8.472;2023-10-09T08:46:56;1332.47;;;999.90;;
14734;SDS011;7458;49.002;8.472;2023-10-09T08:49:23;1334.05;;;999.90;;
14734;SDS011;7458;49.002;8.472;2023-10-09T08:51:51;1268.68;;;999.90;;
14734;SDS011;7458;49.002;8.472;2023-10-09T08:54:20;1268.50;;;999.90;;
14734;SDS011;7458;49.002;8.472;2023-10-09T08:56:46;1327.15;;;999.90;;
14734;SDS011;7458;49.002;8.472;2023-10-09T08:59:15;1269.57;;;999.90;;
14734;SDS011;7458;49.002;8.472;2023-10-09T09:01:48;1323.40;;;999.90;;
14734;SDS011;7458;49.002;8.472;2023-10-09T09:04:33;1260.55;;;999.90;;
14734;SDS011;7458;49.002;8.472;2023-10-09T09:07:27;1320.15;;;999.90;;
14734;SDS011;7458;49.002;8.472;2023-10-09T09:09:59;1321.05;;;999.90;;
14734;SDS011;7458;49.002;8.472;2023-10-09T09:12:42;1251.38;;;999.90;;
14734;SDS011;7458;49.002;8.472;2023-10-09T09:15:15;1288.40;;;999.90;;
14734;SDS011;7458;49.002;8.472;2023-10-09T09:17:45;1343.70;;;999.90;;
14734;SDS011;7458;49.002;8.472;2023-10-09T09:20:20;1246.18;;;999.90;;
14734;SDS011;7458;49.002;8.472;2023-10-09T09:22:59;1266.35;;;999.90;;
14734;SDS011;7458;49.002;8.472;2023-10-09T09:25:45;1331.85;;;999.90;;
14734;SDS011;7458;49.002;8.472;2023-10-09T09:28:24;1352.82;;;999.90;;
14734;SDS011;7458;49.002;8.472;2023-10-09T09:31:06;1383.20;;;999.90;;
14734;SDS011;7458;49.002;8.472;2023-10-09T09:33:40;1319.13;;;999.90;;
14734;SDS011;7458;49.002;8.472;2023-10-09T09:36:08;1306.60;;;999.90;;
14734;SDS011;7458;49.002;8.472;2023-10-09T09:38:37;1317.35;;;999.90;;
14734;SDS011;7458;49.002;8.472;2023-10-09T09:41:13;1381.28;;;999.90;;
14734;SDS011;7458;49.002;8.472;2023-10-09T09:43:53;1371.90;;;999.90;;
14734;SDS011;7458;49.002;8.472;2023-10-09T09:46:26;1320.65;;;999.90;;
14734;SDS011;7458;49.002;8.472;2023-10-09T09:49:03;1382.47;;;999.90;;
14734;SDS011;7458;49.002;8.472;2023-10-09T09:51:31;1338.13;;;999.90;;
14734;SDS011;7458;49.002;8.472;2023-10-09T09:53:57;1339.60;;;999.90;;
14734;SDS011;7458;49.002;8.472;2023-10-09T09:56:26;1349.68;;;999.90;;
14734;SDS011;7458;49.002;8.472;2023-10-09T09:58:55;1347.95;;;999.90;;
14734;SDS011;7458;49.002;8.472;2023-10-09T10:01:31;1347.35;;;999.90;;
14734;SDS011;7458;49.002;8.472;2023-10-09T10:04:05;1346.00;;;999.90;;
14734;SDS011;7458;49.002;8.472;2023-10-09T10:06:38;1407.65;;;999.90;;
14734;SDS011;7458;49.002;8.472;2023-10-09T10:09:10;1405.45;;;999.90;;
14734;SDS011;7458;49.002;8.472;2023-10-09T10:20:24;1357.65;;;999.90;;
14734;SDS011;7458;49.002;8.472;2023-10-09T10:23:36;1408.28;;;999.90;;
14734;SDS011;7458;49.002;8.472;2023-10-09T10:25:44;1405.82;;;999.90;;
14734;SDS011;7458;49.002;8.472;2023-10-09T10:28:24;1414.03;;;999.90;;
14734;SDS011;7458;49.002;8.472;2023-10-09T10:30:54;1352.00;;;999.90;;
14734;SDS011;7458;49.002;8.472;2023-10-09T10:33:20;1411.32;;;999.90;;
14734;SDS011;7458;49.002;8.472;2023-10-09T10:35:52;1396.75;;;999.90;;
14734;SDS011;7458;49.002;8.472;2023-10-09T10:38:27;1401.85;;;999.90;;
14734;SDS011;7458;49.002;8.472;2023-10-09T10:41:15;1426.05;;;999.90;;
14734;SDS011;7458;49.002;8.472;2023-10-09T10:43:44;1394.32;;;999.90;;
14734;SDS011;7458;49.002;8.472;2023-10-09T10:46:17;1351.32;;;999.90;;
14734;SDS011;7458;49.002;8.472;2023-10-09T10:48:54;1335.72;;;999.90;;
14734;SDS011;7458;49.002;8.472;2023-10-09T10:51:27;1398.53;;;999.90;;
14734;SDS011;7458;49.002;8.472;2023-10-09T10:54:03;1332.97;;;999.90;;
14734;SDS011;7458;49.002;8.472;2023-10-09T10:57:28;1405.22;;;999.90;;
14734;SDS011;7458;49.002;8.472;2023-10-09T10:59:55;1338.72;;;999.90;;
14734;SDS011;7458;49.002;8.472;2023-10-09T11:03:00;1414.43;;;999.90;;
14734;SDS011;7458;49.002;8.472;2023-10-09T11:05:39;1410.53;;;999.90;;
14734;SDS011;7458;49.002;8.472;2023-10-09T11:08:10;1410.03;;;999.90;;
14734;SDS011;7458;49.002;8.472;2023-10-09T11:10:37;1406.00;;;999.90;;
14734;SDS011;7458;49.002;8.472;2023-10-09T11:13:21;1354.85;;;999.90;;
14734;SDS011;7458;49.002;8.472;2023-10-09T11:16:01;1353.80;;;999.90;;
14734;SDS011;7458;49.002;8.472;2023-10-09T11:18:54;1423.65;;;999.90;;
14734;SDS011;7458;49.002;8.472;2023-10-09T11:21:22;1383.15;;;999.90;;
14734;SDS011;7458;49.002;8.472;2023-10-09T11:23:56;1352.65;;;999.90;;
14734;SDS011;7458;49.002;8.472;2023-10-09T11:26:46;1376.13;;;999.90;;
14734;SDS011;7458;49.002;8.472;2023-10-09T11:29:19;1316.40;;;999.90;;
14734;SDS011;7458;49.002;8.472;2023-10-09T11:32:04;1363.43;;;999.90;;
14734;SDS011;7458;49.002;8.472;2023-10-09T11:34:34;1390.15;;;999.90;;
14734;SDS011;7458;49.002;8.472;2023-10-09T11:37:02;1410.10;;;999.90;;
14734;SDS011;7458;49.002;8.472;2023-10-09T11:39:40;1399.22;;;999.90;;
14734;SDS011;7458;49.002;8.472;2023-10-09T11:42:19;1337.07;;;999.90;;
14734;SDS011;7458;49.002;8.472;2023-10-09T11:45:06;1400.32;;;999.90;;
14734;SDS011;7458;49.002;8.472;2023-10-09T11:47:46;1405.90;;;999.90;;
14734;SDS011;7458;49.002;8.472;2023-10-09T11:50:38;1347.22;;;999.90;;
14734;SDS011;7458;49.002;8.472;2023-10-09T11:53:18;1413.40;;;999.90;;
14734;SDS011;7458;49.002;8.472;2023-10-09T11:55:47;1346.55;;;999.90;;
14734;SDS011;7458;49.002;8.472;2023-10-09T11:58:16;1342.57;;;999.90;;
14734;SDS011;7458;49.002;8.472;2023-10-09T12:00:51;1396.68;;;999.90;;
14734;SDS011;7458;49.002;8.472;2023-10-09T12:03:38;1341.30;;;999.90;;
14734;SDS011;7458;49.002;8.472;2023-10-09T12:06:04;1407.50;;;999.90;;
14734;SDS011;7458;49.002;8.472;2023-10-09T12:08:33;1337.55;;;999.90;;
14734;SDS011;7458;49.002;8.472;2023-10-09T12:11:01;1398.07;;;999.90;;
14734;SDS011;7458;49.002;8.472;2023-10-09T12:13:28;1396.63;;;999.90;;
14734;SDS011;7458;49.002;8.472;2023-10-09T12:15:54;1360.05;;;999.90;;
14734;SDS011;7458;49.002;8.472;2023-10-09T12:18:23;1411.45;;;999.90;;
14734;SDS011;7458;49.002;8.472;2023-10-09T12:20:49;1408.50;;;999.90;;
14734;SDS011;7458;49.002;8.472;2023-10-09T12:23:20;1420.00;;;999.90;;
14734;SDS011;7458;49.002;8.472;2023-10-09T12:25:50;1368.50;;;999.90;;
14734;SDS011;7458;49.002;8.472;2023-10-09T12:28:21;1353.37;;;999.90;;
14734;SDS011;7458;49.002;8.472;2023-10-09T12:30:48;1375.05;;;999.90;;
14734;SDS011;7458;49.002;8.472;2023-10-09T12:33:18;1311.97;;;999.90;;
14734;SDS011;7458;49.002;8.472;2023-10-09T12:35:45;1376.32;;;999.90;;
14734;SDS011;7458;49.002;8.472;2023-10-09T12:38:12;1375.32;;;999.90;;
14734;SDS011;7458;49.002;8.472;2023-10-09T12:40:43;1375.43;;;999.90;;
14734;SDS011;7458;49.002;8.472;2023-10-09T12:43:16;1308.90;;;999.90;;
14734;SDS011;7458;49.002;8.472;2023-10-09T12:45:44;1375.97;;;999.90;;
14734;SDS011;7458;49.002;8.472;2023-10-09T12:48:12;1307.57;;;999.90;;
14734;SDS011;7458;49.002;8.472;2023-10-09T12:50:39;1310.85;;;999.90;;
14734;SDS011;7458;49.002;8.472;2023-10-09T12:53:11;1305.50;;;999.90;;
14734;SDS011;7458;49.002;8.472;2023-10-09T12:55:42;1368.35;;;999.90;;
14734;SDS011;7458;49.002;8.472;2023-10-09T12:58:09;1366.18;;;999.90;;
14734;SDS011;7458;49.002;8.472;2023-10-09T13:00:40;1304.07;;;999.90;;
14734;SDS011;7458;49.002;8.472;2023-10-09T13:03:14;1303.93;;;999.90;;
14734;SDS011;7458;49.002;8.472;2023-10-09T13:05:43;1376.20;;;999.90;;
14734;SDS011;7458;49.002;8.472;2023-10-09T13:08:18;1375.65;;;999.90;;
14734;SDS011;7458;49.002;8.472;2023-10-09T13:10:52;1305.45;;;999.90;;
14734;SDS011;7458;49.002;8.472;2023-10-09T13:13:25;1421.25;;;999.90;;
14734;SDS011;7458;49.002;8.472;2023-10-09T13:16:07;1306.53;;;999.90;;
14734;SDS011;7458;49.002;8.472;2023-10-09T13:18:45;1371.25;;;999.90;;
14734;SDS011;7458;49.002;8.472;2023-10-09T13:21:15;1306.70;;;999.90;;
14734;SDS011;7458;49.002;8.472;2023-10-09T13:23:52;1303.57;;;999.90;;
14734;SDS011;7458;49.002;8.472;2023-10-09T13:26:22;1309.18;;;999.90;;
14734;SDS011;7458;49.002;8.472;2023-10-09T13:28:53;1374.05;;;999.90;;
14734;SDS011;7458;49.002;8.472;2023-10-09T13:31:23;1302.55;;;999.90;;
14734;SDS011;7458;49.002;8.472;2023-10-09T13:33:51;1303.32;;;999.90;;
14734;SDS011;7458;49.002;8.472;2023-10-09T13:36:24;1303.85;;;999.90;;
14734;SDS011;7458;49.002;8.472;2023-10-09T13:39:02;1357.50;;;999.90;;
14734;SDS011;7458;49.002;8.472;2023-10-09T13:41:51;1298.40;;;999.90;;
14734;SDS011;7458;49.002;8.472;2023-10-09T13:44:24;1368.22;;;999.90;;
14734;SDS011;7458;49.002;8.472;2023-10-09T13:46:52;1358.45;;;999.90;;
14734;SDS011;7458;49.002;8.472;2023-10-09T13:49:19;1296.82;;;999.90;;
14734;SDS011;7458;49.002;8.472;2023-10-09T13:51:47;1295.97;;;999.90;;
14734;SDS011;7458;49.002;8.472;2023-10-09T13:54:15;1363.82;;;999.90;;
14734;SDS011;7458;49.002;8.472;2023-10-09T13:56:54;1294.30;;;999.90;;
14734;SDS011;7458;49.002;8.472;2023-10-09T13:59:20;1369.35;;;999.90;;
14734;SDS011;7458;49.002;8.472;2023-10-09T14:01:50;1304.15;;;999.90;;
14734;SDS011;7458;49.002;8.472;2023-10-09T14:04:20;1301.50;;;999.90;;
14734;SDS011;7458;49.002;8.472;2023-10-09T14:06:48;1288.20;;;999.90;;
14734;SDS011;7458;49.002;8.472;2023-10-09T14:09:21;1297.68;;;999.90;;
14734;SDS011;7458;49.002;8.472;2023-10-09T14:12:10;1366.10;;;999.90;;
14734;SDS011;7458;49.002;8.472;2023-10-09T14:14:45;1286.85;;;999.90;;
14734;SDS011;7458;49.002;8.472;2023-10-09T14:17:17;1369.90;;;999.90;;
14734;SDS011;7458;49.002;8.472;2023-10-09T14:19:49;1365.13;;;999.90;;
14734;SDS011;7458;49.002;8.472;2023-10-09T14:22:26;1281.03;;;999.90;;
14734;SDS011;7458;49.002;8.472;2023-10-09T14:24:52;1285.10;;;999.90;;
14734;SDS011;7458;49.002;8.472;2023-10-09T14:27:23;1361.60;;;999.90;;
14734;SDS011;7458;49.002;8.472;2023-10-09T14:29:54;1286.60;;;999.90;;
14734;SDS011;7458;49.002;8.472;2023-10-09T14:32:23;1355.30;;;999.90;;
14734;SDS011;7458;49.002;8.472;2023-10-09T14:34:54;1351.13;;;999.90;;
14734;SDS011;7458;49.002;8.472;2023-10-09T14:37:26;1267.47;;;999.90;;
14734;SDS011;7458;49.002;8.472;2023-10-09T14:39:58;1354.35;;;999.90;;
14734;SDS011;7458;49.002;8.472;2023-10-09T14:42:24;1284.60;;;999.90;;
14734;SDS011;7458;49.002;8.472;2023-10-09T14:44:52;1279.45;;;999.90;;
14734;SDS011;7458;49.002;8.472;2023-10-09T14:47:20;1358.72;;;999.90;;
14734;SDS011;7458;49.002;8.472;2023-10-09T14:49:49;1280.18;;;999.90;;
14734;SDS011;7458;49.002;8.472;2023-10-09T14:52:15;1282.60;;;999.90;;
14734;SDS011;7458;49.002;8.472;2023-10-09T14:54:46;1365.45;;;999.90;;
14734;SDS011;7458;49.002;8.472;2023-10-09T14:57:12;1283.75;;;999.90;;
14734;SDS011;7458;49.002;8.472;2023-10-09T14:59:39;1296.32;;;999.90;;
14734;SDS011;7458;49.002;8.472;2023-10-09T15:02:05;1291.40;;;999.90;;
14734;SDS011;7458;49.002;8.472;2023-10-09T15:04:32;1362.40;;;999.90;;
14734;SDS011;7458;49.002;8.472;2023-10-09T15:07:01;1295.30;;;999.90;;
14734;SDS011;7458;49.002;8.472;2023-10-09T15:09:27;1361.70;;;999.90;;